createdAt,value
2023-03-31T00:04:59.968Z,99122.75
2023-03-31T00:10:16.421Z,99128.31
2023-03-31T00:15:19.514Z,99116.78
2023-03-31T00:20:22.796Z,99110.03
2023-03-31T00:25:24.476Z,99105.44
2023-03-31T00:30:26.154Z,99104.72
2023-03-31T00:35:27.907Z,99098.19
2023-03-31T00:40:29.555Z,99094.44
2023-03-31T00:45:31.646Z,99090.84
2023-03-31T00:50:37.563Z,99081.56
2023-03-31T00:55:54.792Z,99072.06
2023-03-31T01:00:58.188Z,99060.16
2023-03-31T01:06:06.546Z,99048.38
2023-03-31T01:11:11.971Z,99051.28
2023-03-31T01:16:13.641Z,99031.69
2023-03-31T01:21:47.272Z,99026.81
2023-03-31T01:27:26.526Z,99030.38
2023-03-31T01:32:55.976Z,99014.25
2023-03-31T01:38:12.694Z,99006.53
2023-03-31T01:43:33.793Z,99003.91
2023-03-31T01:48:55.198Z,98998.56
2023-03-31T01:54:18.752Z,98985.25
2023-03-31T01:59:27.638Z,98987.97
2023-03-31T02:04:35.025Z,98974.94
2023-03-31T02:09:42.434Z,98964.13
2023-03-31T02:14:47.715Z,98947.88
2023-03-31T02:19:53.505Z,98955.09
2023-03-31T02:24:59.174Z,98952.56
2023-03-31T02:30:01.859Z,98927.56
2023-03-31T02:35:06.217Z,98930.84
2023-03-31T02:40:15.624Z,98935.81
2023-03-31T02:45:39.298Z,98929.78
2023-03-31T02:50:59.516Z,98922.56
2023-03-31T02:56:38.406Z,98921.97
2023-03-31T03:02:01.988Z,98923.38
2023-03-31T03:07:19.059Z,98915.16
2023-03-31T03:12:32.909Z,98908.84
2023-03-31T03:17:45.491Z,98913.56
2023-03-31T03:22:47.306Z,98900.91
2023-03-31T03:27:48.991Z,98895.78
2023-03-31T03:32:50.836Z,98876.75
2023-03-31T03:37:52.632Z,98876.66
2023-03-31T03:42:54.279Z,98874.47
2023-03-31T03:47:56.117Z,98870.94
2023-03-31T03:52:57.836Z,98860.53
2023-03-31T03:57:59.741Z,98855.22
2023-03-31T04:03:01.824Z,98847.03
2023-03-31T04:08:04.516Z,98845.72
2023-03-31T04:13:06.791Z,98828.53
2023-03-31T04:18:11.332Z,98823.53
2023-03-31T04:23:14.896Z,98831.78
2023-03-31T04:28:16.890Z,98815.75
2023-03-31T04:33:19.115Z,98813.53
2023-03-31T04:38:23.732Z,98798.84
2023-03-31T04:43:25.633Z,98794.50
2023-03-31T04:48:27.230Z,98787.84
2023-03-31T04:53:29.001Z,98784.56
2023-03-31T04:58:30.637Z,98773.31
2023-03-31T05:03:32.677Z,98768.28
2023-03-31T05:08:34.539Z,98768.81
2023-03-31T05:13:36.420Z,98761.16
2023-03-31T05:18:38.198Z,98750.13
2023-03-31T05:23:39.957Z,98743.13
2023-03-31T05:28:41.826Z,98735.28
2023-03-31T05:33:43.719Z,98717.13
2023-03-31T05:38:46.147Z,98707.06
2023-03-31T05:43:47.984Z,98701.38
2023-03-31T05:48:49.852Z,98692.13
2023-03-31T05:53:51.703Z,98674.06
2023-03-31T05:58:53.826Z,98672.47
2023-03-31T06:03:56.384Z,98674.84
2023-03-31T06:08:58.227Z,98654.34
2023-03-31T06:14:00.283Z,98655.88
2023-03-31T06:19:02.220Z,98656.34
2023-03-31T06:24:04.050Z,98647.81
2023-03-31T06:29:06.126Z,98627.94
2023-03-31T06:34:07.912Z,98622.84
2023-03-31T06:39:09.784Z,98613.50
2023-03-31T06:44:11.593Z,98613.84
2023-03-31T06:49:13.385Z,98609.72
2023-03-31T06:54:15.226Z,98605.44
2023-03-31T06:59:17.140Z,98596.53
2023-03-31T07:04:18.889Z,98598.41
2023-03-31T07:09:23.361Z,98596.22
2023-03-31T07:14:25.075Z,98595.28
2023-03-31T07:19:26.759Z,98589.78
2023-03-31T07:24:30.487Z,98582.06
2023-03-31T07:29:32.205Z,98581.31
2023-03-31T07:34:36.215Z,98555.09
2023-03-31T07:39:39.136Z,98553.91
2023-03-31T07:44:40.889Z,98553.69
2023-03-31T07:49:42.565Z,98543.50
2023-03-31T07:54:44.211Z,98551.94
2023-03-31T07:59:47.090Z,98530.50
2023-03-31T08:04:48.733Z,98535.16
2023-03-31T08:09:50.542Z,98534.63
2023-03-31T08:14:52.443Z,98545.88
2023-03-31T08:19:54.691Z,98547.56
2023-03-31T08:24:56.368Z,98533.09
2023-03-31T08:29:58.077Z,98529.69
2023-03-31T08:35:00.551Z,98522.75
2023-03-31T08:40:05.264Z,98525.38
2023-03-31T08:45:27.963Z,98524.53
2023-03-31T08:50:34.698Z,98515.78
2023-03-31T08:55:49.992Z,98508.69
2023-03-31T09:00:55.534Z,98495.78
2023-03-31T09:06:07.937Z,98494.44
2023-03-31T09:11:09.664Z,98490.78
2023-03-31T09:16:24.458Z,98490.84
2023-03-31T09:21:32.029Z,98464.69
2023-03-31T09:26:39.250Z,98456.13
2023-03-31T09:31:43.893Z,98466.53
2023-03-31T09:36:45.807Z,98457.44
2023-03-31T09:41:50.822Z,98439.97
2023-03-31T09:46:53.857Z,98432.75
2023-03-31T09:52:03.528Z,98432.13
2023-03-31T09:57:23.332Z,98432.38
2023-03-31T10:02:39.020Z,98426.44
2023-03-31T10:07:42.298Z,98410.72
2023-03-31T10:12:52.059Z,98404.16
2023-03-31T10:17:55.356Z,98409.63
2023-03-31T10:23:03.539Z,98402.16
2023-03-31T10:28:15.564Z,98395.22
2023-03-31T10:33:23.791Z,98382.72
2023-03-31T10:38:40.140Z,98377.56
2023-03-31T10:43:47.488Z,98362.09
2023-03-31T10:48:51.351Z,98373.38
2023-03-31T10:53:55.829Z,98359.47
2023-03-31T10:59:21.712Z,98347.63
2023-03-31T11:04:43.277Z,98347.75
2023-03-31T11:10:20.372Z,98332.03
2023-03-31T11:15:44.314Z,98323.91
2023-03-31T11:21:05.858Z,98317.81
2023-03-31T11:26:17.233Z,98313.78
2023-03-31T11:31:24.837Z,98302.44
2023-03-31T11:36:45.071Z,98298.91
2023-03-31T11:41:58.235Z,98284.63
2023-03-31T11:47:07.022Z,98275.97
2023-03-31T11:52:14.765Z,98266.97
2023-03-31T11:57:22.210Z,98280.44
2023-03-31T12:02:39.928Z,98271.16
2023-03-31T12:07:49.086Z,98249.50
2023-03-31T12:13:23.041Z,98244.81
2023-03-31T12:18:28.332Z,98243.63
2023-03-31T12:23:36.006Z,98230.13
2023-03-31T12:28:40.649Z,98221.31
2023-03-31T12:33:46.616Z,98214.47
2023-03-31T12:39:08.831Z,98204.06
2023-03-31T12:44:29.238Z,98199.94
2023-03-31T12:49:50.258Z,98188.84
2023-03-31T12:55:00.575Z,98174.97
2023-03-31T13:00:12.602Z,98164.25
2023-03-31T13:05:36.213Z,98156.22
2023-03-31T13:10:58.662Z,98145.78
2023-03-31T13:16:02.024Z,98142.69
2023-03-31T13:21:05.761Z,98129.47
2023-03-31T13:26:33.383Z,98124.53
2023-03-31T13:32:00.687Z,98113.69
2023-03-31T13:37:30.888Z,98105.44
2023-03-31T13:42:51.037Z,98099.78
2023-03-31T13:48:21.634Z,98079.16
2023-03-31T13:53:39.467Z,98081.69
2023-03-31T13:58:59.280Z,98078.53
2023-03-31T14:04:16.079Z,98085.97
2023-03-31T14:09:24.038Z,98089.16
2023-03-31T14:14:26.634Z,98088.78
2023-03-31T14:19:54.983Z,98089.25
2023-03-31T14:25:02.641Z,98097.16
2023-03-31T14:30:13.576Z,98088.09
2023-03-31T14:35:42.934Z,98078.56
2023-03-31T14:40:57.821Z,98080.22
2023-03-31T14:46:23.193Z,98063.91
2023-03-31T14:51:28.721Z,98057.63
2023-03-31T14:56:41.142Z,98038.94
2023-03-31T15:01:46.383Z,98044.56
2023-03-31T15:06:49.865Z,98048.91
2023-03-31T15:11:59.268Z,98054.50
2023-03-31T15:17:01.312Z,98046.22
2023-03-31T15:22:16.403Z,98048.63
2023-03-31T15:27:36.670Z,98049.31
2023-03-31T15:32:40.915Z,98043.47
2023-03-31T15:37:44.136Z,98040.56
2023-03-31T15:43:01.474Z,98037.59
2023-03-31T15:48:28.719Z,98028.25
2023-03-31T15:53:39.132Z,98027.31
2023-03-31T15:58:54.462Z,98018.59
2023-03-31T16:03:56.871Z,98022.28
2023-03-31T16:09:09.017Z,98024.69
2023-03-31T16:14:20.290Z,98011.34
2023-03-31T16:19:25.446Z,98021.44
2023-03-31T16:24:32.919Z,98024.88
2023-03-31T16:29:35.901Z,98035.84
2023-03-31T16:34:56.794Z,98052.06
2023-03-31T16:39:58.490Z,98059.88
2023-03-31T16:45:13.909Z,98064.50
2023-03-31T16:50:16.592Z,98073.31
2023-03-31T16:55:18.294Z,98072.56
2023-03-31T17:00:20.549Z,98084.25
2023-03-31T17:05:22.434Z,98078.34
2023-03-31T17:10:24.364Z,98078.19
2023-03-31T17:15:26.650Z,98076.22
2023-03-31T17:20:28.372Z,98066.06
2023-03-31T17:25:30.786Z,98064.28
2023-03-31T17:30:35.633Z,98059.56
2023-03-31T17:35:38.159Z,98066.00
2023-03-31T17:40:40.940Z,98067.59
2023-03-31T17:45:42.700Z,98068.16
2023-03-31T17:50:45.051Z,98064.31
2023-03-31T17:55:46.876Z,98079.50
2023-03-31T18:00:49.191Z,98081.66
2023-03-31T18:05:51.191Z,98090.72
2023-03-31T18:10:52.974Z,98090.78
2023-03-31T18:15:55.054Z,98099.03
2023-03-31T18:20:57.297Z,98095.47
2023-03-31T18:25:59.146Z,98108.59
2023-03-31T18:31:05.581Z,98113.72
2023-03-31T18:36:13.446Z,98120.22
2023-03-31T18:41:17.755Z,98118.94
2023-03-31T18:46:19.895Z,98122.44
2023-03-31T18:51:23.865Z,98121.94
2023-03-31T18:56:25.709Z,98122.34
2023-03-31T19:01:28.637Z,98126.91
2023-03-31T19:06:30.294Z,98117.44
2023-03-31T19:11:32.316Z,98123.50
2023-03-31T19:16:41.497Z,98118.44
2023-03-31T19:21:44.047Z,98114.66
2023-03-31T19:26:46.482Z,98119.25
2023-03-31T19:31:48.620Z,98120.28
2023-03-31T19:36:50.950Z,98130.50
2023-03-31T19:41:52.686Z,98137.44
2023-03-31T19:46:54.407Z,98133.41
2023-03-31T19:51:56.547Z,98136.44
2023-03-31T19:56:58.228Z,98126.66
2023-03-31T20:02:02.439Z,98126.81
2023-03-31T20:07:04.337Z,98128.28
2023-03-31T20:12:06.220Z,98130.81
2023-03-31T20:17:08.148Z,98131.56
2023-03-31T20:22:09.872Z,98132.28
2023-03-31T20:27:11.636Z,98131.28
2023-03-31T20:32:17.162Z,98127.44
2023-03-31T20:37:19.044Z,98133.78
2023-03-31T20:42:21.173Z,98132.34
2023-03-31T20:47:22.829Z,98126.97
2023-03-31T20:52:24.477Z,98130.09
2023-03-31T20:57:26.506Z,98132.44
2023-03-31T21:02:28.353Z,98134.88
2023-03-31T21:07:31.137Z,98137.19
2023-03-31T21:12:33.731Z,98141.97
2023-03-31T21:17:35.451Z,98149.13
2023-03-31T21:22:37.174Z,98155.66
2023-03-31T21:27:38.855Z,98144.44
2023-03-31T21:32:40.745Z,98135.06
2023-03-31T21:37:42.432Z,98130.66
2023-03-31T21:42:44.316Z,98137.50
2023-03-31T21:47:45.994Z,98135.41
2023-03-31T21:52:48.044Z,98144.78
2023-03-31T21:57:49.795Z,98141.63
2023-03-31T22:02:52.465Z,98151.94
2023-03-31T22:07:57.240Z,98147.06
2023-03-31T22:12:58.890Z,98145.59
2023-03-31T22:18:01.712Z,98144.91
2023-03-31T22:23:03.984Z,98142.50
2023-03-31T22:28:07.352Z,98151.28
2023-03-31T22:33:09.252Z,98137.50
2023-03-31T22:38:13.999Z,98135.19
2023-03-31T22:43:15.857Z,98137.59
2023-03-31T22:48:18.285Z,98133.28
2023-03-31T22:53:20.042Z,98127.75
2023-03-31T22:58:22.676Z,98124.91
2023-03-31T23:03:24.983Z,98131.94
2023-03-31T23:08:27.204Z,98126.69
2023-03-31T23:13:30.084Z,98125.47
2023-03-31T23:18:31.834Z,98125.47
2023-03-31T23:23:33.934Z,98121.44
2023-03-31T23:28:37.143Z,98133.06
2023-03-31T23:33:38.890Z,98134.28
2023-03-31T23:38:40.827Z,98130.91
2023-03-31T23:43:43.501Z,98130.50
2023-03-31T23:48:45.568Z,98143.13
2023-03-31T23:53:47.478Z,98137.88
2023-03-31T23:58:49.154Z,98143.06
